sensor_id;sensor_type;location;lat;lon;timestamp;temperature;humidity
75430;DHT22;64127;51.488;5.462;2022-11-20T00:00:55;3.80;92.50
75430;DHT22;64127;51.488;5.462;2022-11-20T00:03:27;3.80;92.50
75430;DHT22;64127;51.488;5.462;2022-11-20T00:06:01;3.80;92.50
75430;DHT22;64127;51.488;5.462;2022-11-20T00:08:34;3.80;92.60
75430;DHT22;64127;51.488;5.462;2022-11-20T00:11:17;3.70;92.60
75430;DHT22;64127;51.488;5.462;2022-11-20T00:13:53;3.80;92.70
75430;DHT22;64127;51.488;5.462;2022-11-20T00:16:27;3.70;92.70
75430;DHT22;64127;51.488;5.462;2022-11-20T00:19:01;3.70;92.70
75430;DHT22;64127;51.488;5.462;2022-11-20T00:21:33;3.70;92.70
75430;DHT22;64127;51.488;5.462;2022-11-20T00:24:07;3.70;92.80
75430;DHT22;64127;51.488;5.462;2022-11-20T00:26:40;3.60;92.80
75430;DHT22;64127;51.488;5.462;2022-11-20T00:29:12;3.70;92.80
75430;DHT22;64127;51.488;5.462;2022-11-20T00:31:44;3.60;92.80
75430;DHT22;64127;51.488;5.462;2022-11-20T00:34:16;3.60;92.90
75430;DHT22;64127;51.488;5.462;2022-11-20T00:36:48;3.60;92.90
75430;DHT22;64127;51.488;5.462;2022-11-20T00:39:20;3.60;92.90
75430;DHT22;64127;51.488;5.462;2022-11-20T00:41:53;3.60;92.90
75430;DHT22;64127;51.488;5.462;2022-11-20T00:44:24;3.60;92.90
75430;DHT22;64127;51.488;5.462;2022-11-20T00:46:56;3.60;93.00
75430;DHT22;64127;51.488;5.462;2022-11-20T00:49:28;3.60;93.00
75430;DHT22;64127;51.488;5.462;2022-11-20T00:52:00;3.50;93.00
75430;DHT22;64127;51.488;5.462;2022-11-20T00:54:32;3.50;93.00
75430;DHT22;64127;51.488;5.462;2022-11-20T00:57:04;3.50;93.00
75430;DHT22;64127;51.488;5.462;2022-11-20T00:59:36;3.50;93.10
75430;DHT22;64127;51.488;5.462;2022-11-20T01:02:08;3.50;93.10
75430;DHT22;64127;51.488;5.462;2022-11-20T01:04:40;3.50;93.10
75430;DHT22;64127;51.488;5.462;2022-11-20T01:07:12;3.50;93.10
75430;DHT22;64127;51.488;5.462;2022-11-20T01:09:44;3.50;93.20
75430;DHT22;64127;51.488;5.462;2022-11-20T01:12:16;3.50;93.20
75430;DHT22;64127;51.488;5.462;2022-11-20T01:14:48;3.40;93.20
75430;DHT22;64127;51.488;5.462;2022-11-20T01:17:20;3.40;93.20
75430;DHT22;64127;51.488;5.462;2022-11-20T01:19:51;3.40;93.30
75430;DHT22;64127;51.488;5.462;2022-11-20T01:22:23;3.40;93.30
75430;DHT22;64127;51.488;5.462;2022-11-20T01:24:55;3.40;93.30
75430;DHT22;64127;51.488;5.462;2022-11-20T01:27:27;3.40;93.30
75430;DHT22;64127;51.488;5.462;2022-11-20T01:29:59;3.40;93.30
75430;DHT22;64127;51.488;5.462;2022-11-20T01:32:32;3.40;93.30
75430;DHT22;64127;51.488;5.462;2022-11-20T01:35:04;3.40;93.40
75430;DHT22;64127;51.488;5.462;2022-11-20T01:37:36;3.40;93.40
75430;DHT22;64127;51.488;5.462;2022-11-20T01:40:09;3.30;93.40
75430;DHT22;64127;51.488;5.462;2022-11-20T01:42:47;3.30;93.40
75430;DHT22;64127;51.488;5.462;2022-11-20T01:46:05;3.30;93.40
75430;DHT22;64127;51.488;5.462;2022-11-20T01:49:04;3.30;93.40
75430;DHT22;64127;51.488;5.462;2022-11-20T01:51:44;3.30;93.40
75430;DHT22;64127;51.488;5.462;2022-11-20T01:54:29;3.30;93.40
75430;DHT22;64127;51.488;5.462;2022-11-20T01:57:14;3.30;93.50
75430;DHT22;64127;51.488;5.462;2022-11-20T01:59:52;3.20;93.40
75430;DHT22;64127;51.488;5.462;2022-11-20T02:02:28;3.20;93.40
75430;DHT22;64127;51.488;5.462;2022-11-20T02:05:05;3.20;93.40
75430;DHT22;64127;51.488;5.462;2022-11-20T02:08:00;3.20;93.50
75430;DHT22;64127;51.488;5.462;2022-11-20T02:10:33;3.20;93.50
75430;DHT22;64127;51.488;5.462;2022-11-20T02:13:06;3.20;93.50
75430;DHT22;64127;51.488;5.462;2022-11-20T02:15:58;3.20;93.60
75430;DHT22;64127;51.488;5.462;2022-11-20T02:18:30;3.20;93.70
75430;DHT22;64127;51.488;5.462;2022-11-20T02:21:08;3.20;93.70
75430;DHT22;64127;51.488;5.462;2022-11-20T02:24:15;3.30;93.80
75430;DHT22;64127;51.488;5.462;2022-11-20T02:27:02;3.30;93.80
75430;DHT22;64127;51.488;5.462;2022-11-20T02:29:57;3.30;93.80
75430;DHT22;64127;51.488;5.462;2022-11-20T02:32:36;3.30;93.80
75430;DHT22;64127;51.488;5.462;2022-11-20T02:38:02;3.30;93.80
75430;DHT22;64127;51.488;5.462;2022-11-20T02:40:34;3.30;93.80
75430;DHT22;64127;51.488;5.462;2022-11-20T02:43:06;3.30;93.80
75430;DHT22;64127;51.488;5.462;2022-11-20T02:45:39;3.30;93.80
75430;DHT22;64127;51.488;5.462;2022-11-20T02:48:11;3.30;93.80
75430;DHT22;64127;51.488;5.462;2022-11-20T02:50:43;3.30;93.80
75430;DHT22;64127;51.488;5.462;2022-11-20T02:53:15;3.20;93.70
75430;DHT22;64127;51.488;5.462;2022-11-20T02:55:47;3.10;93.70
75430;DHT22;64127;51.488;5.462;2022-11-20T02:58:19;3.10;93.70
75430;DHT22;64127;51.488;5.462;2022-11-20T03:00:52;3.10;93.90
75430;DHT22;64127;51.488;5.462;2022-11-20T03:03:24;3.10;94.00
75430;DHT22;64127;51.488;5.462;2022-11-20T03:05:59;3.20;94.00
75430;DHT22;64127;51.488;5.462;2022-11-20T03:08:31;3.20;94.10
75430;DHT22;64127;51.488;5.462;2022-11-20T03:11:05;3.30;94.10
75430;DHT22;64127;51.488;5.462;2022-11-20T03:13:38;3.30;94.10
75430;DHT22;64127;51.488;5.462;2022-11-20T03:18:47;3.40;93.90
75430;DHT22;64127;51.488;5.462;2022-11-20T03:21:19;3.40;94.20
75430;DHT22;64127;51.488;5.462;2022-11-20T03:23:52;3.40;94.20
75430;DHT22;64127;51.488;5.462;2022-11-20T03:26:25;3.40;94.20
75430;DHT22;64127;51.488;5.462;2022-11-20T03:29:01;3.50;94.20
75430;DHT22;64127;51.488;5.462;2022-11-20T03:31:38;3.40;94.10
75430;DHT22;64127;51.488;5.462;2022-11-20T03:34:12;3.50;94.10
75430;DHT22;64127;51.488;5.462;2022-11-20T03:36:44;3.50;94.10
75430;DHT22;64127;51.488;5.462;2022-11-20T03:39:16;3.50;94.20
75430;DHT22;64127;51.488;5.462;2022-11-20T03:41:48;3.50;94.20
75430;DHT22;64127;51.488;5.462;2022-11-20T03:44:21;3.50;94.20
75430;DHT22;64127;51.488;5.462;2022-11-20T03:46:53;3.50;94.20
75430;DHT22;64127;51.488;5.462;2022-11-20T03:49:25;3.50;94.20
75430;DHT22;64127;51.488;5.462;2022-11-20T03:51:57;3.50;94.20
75430;DHT22;64127;51.488;5.462;2022-11-20T03:54:29;3.40;94.10
75430;DHT22;64127;51.488;5.462;2022-11-20T03:57:01;3.50;94.30
75430;DHT22;64127;51.488;5.462;2022-11-20T03:59:33;3.50;94.20
75430;DHT22;64127;51.488;5.462;2022-11-20T04:02:05;3.40;94.10
75430;DHT22;64127;51.488;5.462;2022-11-20T04:04:37;3.40;94.20
75430;DHT22;64127;51.488;5.462;2022-11-20T04:07:09;3.40;94.10
75430;DHT22;64127;51.488;5.462;2022-11-20T04:09:41;3.40;94.20
75430;DHT22;64127;51.488;5.462;2022-11-20T04:12:13;3.30;94.10
75430;DHT22;64127;51.488;5.462;2022-11-20T04:14:45;3.30;94.10
75430;DHT22;64127;51.488;5.462;2022-11-20T04:17:17;3.30;94.10
75430;DHT22;64127;51.488;5.462;2022-11-20T04:19:49;3.30;94.10
75430;DHT22;64127;51.488;5.462;2022-11-20T04:22:21;3.30;94.10
75430;DHT22;64127;51.488;5.462;2022-11-20T04:24:53;3.30;94.20
75430;DHT22;64127;51.488;5.462;2022-11-20T04:27:25;3.30;94.20
75430;DHT22;64127;51.488;5.462;2022-11-20T04:29:57;3.30;94.20
75430;DHT22;64127;51.488;5.462;2022-11-20T04:32:29;3.30;94.20
75430;DHT22;64127;51.488;5.462;2022-11-20T04:35:01;3.30;94.20
75430;DHT22;64127;51.488;5.462;2022-11-20T04:37:33;3.30;94.20
75430;DHT22;64127;51.488;5.462;2022-11-20T04:40:05;3.30;94.20
75430;DHT22;64127;51.488;5.462;2022-11-20T04:42:37;3.30;94.30
75430;DHT22;64127;51.488;5.462;2022-11-20T04:45:09;3.30;94.30
75430;DHT22;64127;51.488;5.462;2022-11-20T04:47:41;3.30;94.30
75430;DHT22;64127;51.488;5.462;2022-11-20T04:50:13;3.30;94.30
75430;DHT22;64127;51.488;5.462;2022-11-20T04:52:46;3.30;94.30
75430;DHT22;64127;51.488;5.462;2022-11-20T04:55:18;3.30;94.30
75430;DHT22;64127;51.488;5.462;2022-11-20T04:57:50;3.30;94.30
75430;DHT22;64127;51.488;5.462;2022-11-20T05:00:23;3.30;94.30
75430;DHT22;64127;51.488;5.462;2022-11-20T05:02:55;3.30;94.30
75430;DHT22;64127;51.488;5.462;2022-11-20T05:05:27;3.30;94.40
75430;DHT22;64127;51.488;5.462;2022-11-20T05:07:59;3.30;94.40
75430;DHT22;64127;51.488;5.462;2022-11-20T05:10:31;3.30;94.30
75430;DHT22;64127;51.488;5.462;2022-11-20T05:13:03;3.20;94.30
75430;DHT22;64127;51.488;5.462;2022-11-20T05:15:35;3.30;94.40
75430;DHT22;64127;51.488;5.462;2022-11-20T05:18:07;3.20;94.30
75430;DHT22;64127;51.488;5.462;2022-11-20T05:20:39;3.20;94.40
75430;DHT22;64127;51.488;5.462;2022-11-20T05:23:11;3.20;94.40
75430;DHT22;64127;51.488;5.462;2022-11-20T05:25:43;3.20;94.40
75430;DHT22;64127;51.488;5.462;2022-11-20T05:28:15;3.20;94.40
75430;DHT22;64127;51.488;5.462;2022-11-20T05:30:48;3.20;94.40
75430;DHT22;64127;51.488;5.462;2022-11-20T05:33:21;3.20;94.40
75430;DHT22;64127;51.488;5.462;2022-11-20T05:35:58;3.30;94.50
75430;DHT22;64127;51.488;5.462;2022-11-20T05:38:30;3.30;94.50
75430;DHT22;64127;51.488;5.462;2022-11-20T05:41:08;3.30;94.50
75430;DHT22;64127;51.488;5.462;2022-11-20T05:43:43;3.30;94.50
75430;DHT22;64127;51.488;5.462;2022-11-20T05:46:20;3.30;94.50
75430;DHT22;64127;51.488;5.462;2022-11-20T05:48:59;3.30;94.50
75430;DHT22;64127;51.488;5.462;2022-11-20T05:51:31;3.30;94.50
75430;DHT22;64127;51.488;5.462;2022-11-20T05:54:03;3.30;94.50
75430;DHT22;64127;51.488;5.462;2022-11-20T05:56:35;3.30;94.50
75430;DHT22;64127;51.488;5.462;2022-11-20T05:59:07;3.30;94.50
75430;DHT22;64127;51.488;5.462;2022-11-20T06:01:39;3.30;94.50
75430;DHT22;64127;51.488;5.462;2022-11-20T06:04:11;3.30;94.50
75430;DHT22;64127;51.488;5.462;2022-11-20T06:06:42;3.30;94.60
75430;DHT22;64127;51.488;5.462;2022-11-20T06:09:15;3.30;94.60
75430;DHT22;64127;51.488;5.462;2022-11-20T06:11:47;3.40;94.70
75430;DHT22;64127;51.488;5.462;2022-11-20T06:14:18;3.40;94.70
75430;DHT22;64127;51.488;5.462;2022-11-20T06:16:51;3.40;94.70
75430;DHT22;64127;51.488;5.462;2022-11-20T06:19:22;3.40;94.70
75430;DHT22;64127;51.488;5.462;2022-11-20T06:21:54;3.50;94.80
75430;DHT22;64127;51.488;5.462;2022-11-20T06:24:26;3.50;94.80
75430;DHT22;64127;51.488;5.462;2022-11-20T06:26:58;3.50;94.90
75430;DHT22;64127;51.488;5.462;2022-11-20T06:29:30;3.50;94.90
75430;DHT22;64127;51.488;5.462;2022-11-20T06:32:04;3.60;95.00
75430;DHT22;64127;51.488;5.462;2022-11-20T06:34:36;3.60;95.00
75430;DHT22;64127;51.488;5.462;2022-11-20T06:37:08;3.60;95.10
75430;DHT22;64127;51.488;5.462;2022-11-20T06:39:40;3.60;95.10
75430;DHT22;64127;51.488;5.462;2022-11-20T06:42:12;3.70;95.20
75430;DHT22;64127;51.488;5.462;2022-11-20T06:44:44;3.70;95.20
75430;DHT22;64127;51.488;5.462;2022-11-20T06:47:16;3.70;95.20
75430;DHT22;64127;51.488;5.462;2022-11-20T06:49:48;3.70;95.20
75430;DHT22;64127;51.488;5.462;2022-11-20T06:52:20;3.70;95.20
75430;DHT22;64127;51.488;5.462;2022-11-20T06:54:52;3.70;95.20
75430;DHT22;64127;51.488;5.462;2022-11-20T06:57:24;3.70;95.30
75430;DHT22;64127;51.488;5.462;2022-11-20T06:59:56;3.70;95.30
75430;DHT22;64127;51.488;5.462;2022-11-20T07:02:28;3.60;95.20
75430;DHT22;64127;51.488;5.462;2022-11-20T07:05:00;3.70;95.30
75430;DHT22;64127;51.488;5.462;2022-11-20T07:07:32;3.60;95.30
75430;DHT22;64127;51.488;5.462;2022-11-20T07:10:04;3.60;95.40
75430;DHT22;64127;51.488;5.462;2022-11-20T07:12:37;3.60;95.40
75430;DHT22;64127;51.488;5.462;2022-11-20T07:15:09;3.60;95.40
75430;DHT22;64127;51.488;5.462;2022-11-20T07:17:41;3.60;95.40
75430;DHT22;64127;51.488;5.462;2022-11-20T07:20:13;3.70;95.50
75430;DHT22;64127;51.488;5.462;2022-11-20T07:22:45;3.60;95.40
75430;DHT22;64127;51.488;5.462;2022-11-20T07:25:17;3.70;95.60
75430;DHT22;64127;51.488;5.462;2022-11-20T07:27:49;3.60;95.50
75430;DHT22;64127;51.488;5.462;2022-11-20T07:30:21;3.70;95.60
75430;DHT22;64127;51.488;5.462;2022-11-20T07:32:54;3.70;95.60
75430;DHT22;64127;51.488;5.462;2022-11-20T07:35:27;3.70;95.60
75430;DHT22;64127;51.488;5.462;2022-11-20T07:37:59;3.70;95.60
75430;DHT22;64127;51.488;5.462;2022-11-20T07:40:31;3.70;95.70
75430;DHT22;64127;51.488;5.462;2022-11-20T07:43:03;3.80;96.10
75430;DHT22;64127;51.488;5.462;2022-11-20T07:45:35;3.80;95.80
75430;DHT22;64127;51.488;5.462;2022-11-20T07:48:07;3.80;95.80
75430;DHT22;64127;51.488;5.462;2022-11-20T07:50:39;3.80;95.80
75430;DHT22;64127;51.488;5.462;2022-11-20T07:53:11;3.80;95.80
75430;DHT22;64127;51.488;5.462;2022-11-20T07:55:44;3.80;95.90
75430;DHT22;64127;51.488;5.462;2022-11-20T07:58:16;3.90;95.90
75430;DHT22;64127;51.488;5.462;2022-11-20T08:00:48;3.90;95.90
75430;DHT22;64127;51.488;5.462;2022-11-20T08:03:20;3.90;96.00
75430;DHT22;64127;51.488;5.462;2022-11-20T08:06:01;3.90;96.00
75430;DHT22;64127;51.488;5.462;2022-11-20T08:08:33;3.90;96.00
75430;DHT22;64127;51.488;5.462;2022-11-20T08:11:12;3.90;96.00
75430;DHT22;64127;51.488;5.462;2022-11-20T08:14:03;4.00;96.10
75430;DHT22;64127;51.488;5.462;2022-11-20T08:16:46;4.00;96.10
75430;DHT22;64127;51.488;5.462;2022-11-20T08:19:19;4.00;96.10
75430;DHT22;64127;51.488;5.462;2022-11-20T08:21:52;4.00;96.10
75430;DHT22;64127;51.488;5.462;2022-11-20T08:24:24;4.10;96.10
75430;DHT22;64127;51.488;5.462;2022-11-20T08:26:58;4.10;96.10
75430;DHT22;64127;51.488;5.462;2022-11-20T08:29:30;4.10;96.10
75430;DHT22;64127;51.488;5.462;2022-11-20T08:32:02;4.20;96.20
75430;DHT22;64127;51.488;5.462;2022-11-20T08:34:34;4.20;96.10
75430;DHT22;64127;51.488;5.462;2022-11-20T08:37:06;4.20;96.20
75430;DHT22;64127;51.488;5.462;2022-11-20T08:39:38;4.20;96.30
75430;DHT22;64127;51.488;5.462;2022-11-20T08:42:10;4.20;96.30
75430;DHT22;64127;51.488;5.462;2022-11-20T08:44:42;4.30;96.30
75430;DHT22;64127;51.488;5.462;2022-11-20T08:47:14;4.30;96.30
75430;DHT22;64127;51.488;5.462;2022-11-20T08:49:46;4.30;96.40
75430;DHT22;64127;51.488;5.462;2022-11-20T08:52:18;4.30;96.50
75430;DHT22;64127;51.488;5.462;2022-11-20T08:54:50;4.40;96.50
75430;DHT22;64127;51.488;5.462;2022-11-20T08:57:22;4.40;96.50
75430;DHT22;64127;51.488;5.462;2022-11-20T08:59:55;4.40;96.50
75430;DHT22;64127;51.488;5.462;2022-11-20T09:02:47;4.40;96.50
75430;DHT22;64127;51.488;5.462;2022-11-20T09:05:18;4.50;96.60
75430;DHT22;64127;51.488;5.462;2022-11-20T09:07:50;4.50;96.60
75430;DHT22;64127;51.488;5.462;2022-11-20T09:10:22;4.50;96.60
75430;DHT22;64127;51.488;5.462;2022-11-20T09:12:56;4.50;96.60
75430;DHT22;64127;51.488;5.462;2022-11-20T09:15:28;4.50;96.80
75430;DHT22;64127;51.488;5.462;2022-11-20T09:18:02;4.60;96.90
75430;DHT22;64127;51.488;5.462;2022-11-20T09:20:36;4.60;97.00
75430;DHT22;64127;51.488;5.462;2022-11-20T09:23:08;4.60;97.00
75430;DHT22;64127;51.488;5.462;2022-11-20T09:25:40;4.70;97.10
75430;DHT22;64127;51.488;5.462;2022-11-20T09:28:13;4.80;97.10
75430;DHT22;64127;51.488;5.462;2022-11-20T09:30:45;4.80;97.10
75430;DHT22;64127;51.488;5.462;2022-11-20T09:33:17;4.80;97.20
75430;DHT22;64127;51.488;5.462;2022-11-20T09:35:49;4.70;97.20
75430;DHT22;64127;51.488;5.462;2022-11-20T09:38:21;4.70;97.20
75430;DHT22;64127;51.488;5.462;2022-11-20T09:41:10;4.70;97.30
75430;DHT22;64127;51.488;5.462;2022-11-20T09:50:46;4.80;97.50
75430;DHT22;64127;51.488;5.462;2022-11-20T09:59:55;4.90;97.70
75430;DHT22;64127;51.488;5.462;2022-11-20T10:05:19;4.90;97.80
75430;DHT22;64127;51.488;5.462;2022-11-20T10:16:51;5.10;98.10
75430;DHT22;64127;51.488;5.462;2022-11-20T10:30:12;5.20;98.40
75430;DHT22;64127;51.488;5.462;2022-11-20T10:32:52;5.20;98.40
75430;DHT22;64127;51.488;5.462;2022-11-20T10:38:26;5.20;98.50
75430;DHT22;64127;51.488;5.462;2022-11-20T10:41:21;5.30;98.60
75430;DHT22;64127;51.488;5.462;2022-11-20T10:44:05;5.30;98.60
75430;DHT22;64127;51.488;5.462;2022-11-20T10:46:45;5.30;98.70
75430;DHT22;64127;51.488;5.462;2022-11-20T10:49:19;5.30;98.70
75430;DHT22;64127;51.488;5.462;2022-11-20T11:00:50;5.40;98.80
75430;DHT22;64127;51.488;5.462;2022-11-20T11:03:29;5.40;98.80
75430;DHT22;64127;51.488;5.462;2022-11-20T11:09:34;5.50;99.00
75430;DHT22;64127;51.488;5.462;2022-11-20T11:12:11;5.50;99.10
75430;DHT22;64127;51.488;5.462;2022-11-20T11:14:52;5.50;99.10
75430;DHT22;64127;51.488;5.462;2022-11-20T11:17:30;5.50;99.30
75430;DHT22;64127;51.488;5.462;2022-11-20T11:22:50;5.50;99.30
75430;DHT22;64127;51.488;5.462;2022-11-20T11:25:35;5.50;99.30
75430;DHT22;64127;51.488;5.462;2022-11-20T11:30:49;5.50;99.40
75430;DHT22;64127;51.488;5.462;2022-11-20T11:33:29;5.60;99.50
75430;DHT22;64127;51.488;5.462;2022-11-20T11:36:14;5.60;99.60
75430;DHT22;64127;51.488;5.462;2022-11-20T11:38:53;5.60;99.60
75430;DHT22;64127;51.488;5.462;2022-11-20T11:41:29;5.60;99.70
75430;DHT22;64127;51.488;5.462;2022-11-20T11:44:17;5.60;99.80
75430;DHT22;64127;51.488;5.462;2022-11-20T11:50:26;5.60;99.90
75430;DHT22;64127;51.488;5.462;2022-11-20T11:56:06;5.60;99.90
75430;DHT22;64127;51.488;5.462;2022-11-20T11:58:50;5.70;99.90
75430;DHT22;64127;51.488;5.462;2022-11-20T12:01:39;5.70;99.90
75430;DHT22;64127;51.488;5.462;2022-11-20T12:16:58;5.90;99.90
75430;DHT22;64127;51.488;5.462;2022-11-20T12:19:34;5.90;99.90
75430;DHT22;64127;51.488;5.462;2022-11-20T12:22:17;5.90;99.90
75430;DHT22;64127;51.488;5.462;2022-11-20T12:25:17;6.00;99.90
75430;DHT22;64127;51.488;5.462;2022-11-20T12:31:02;6.00;99.90
75430;DHT22;64127;51.488;5.462;2022-11-20T13:00:07;6.30;99.90
75430;DHT22;64127;51.488;5.462;2022-11-20T13:08:38;6.40;99.90
75430;DHT22;64127;51.488;5.462;2022-11-20T13:11:32;6.50;99.90
75430;DHT22;64127;51.488;5.462;2022-11-20T13:17:19;6.50;99.90
75430;DHT22;64127;51.488;5.462;2022-11-20T13:19:56;6.70;99.90
75430;DHT22;64127;51.488;5.462;2022-11-20T13:22:47;6.70;99.90
75430;DHT22;64127;51.488;5.462;2022-11-20T13:25:31;6.80;99.90
75430;DHT22;64127;51.488;5.462;2022-11-20T13:30:51;6.80;99.90
75430;DHT22;64127;51.488;5.462;2022-11-20T13:33:36;6.80;99.90
75430;DHT22;64127;51.488;5.462;2022-11-20T13:36:24;6.80;99.90
75430;DHT22;64127;51.488;5.462;2022-11-20T13:38:58;6.80;99.90
75430;DHT22;64127;51.488;5.462;2022-11-20T13:41:33;6.80;99.90
75430;DHT22;64127;51.488;5.462;2022-11-20T13:46:45;6.80;99.90
75430;DHT22;64127;51.488;5.462;2022-11-20T13:49:27;6.80;99.90
75430;DHT22;64127;51.488;5.462;2022-11-20T13:52:39;6.80;99.90
75430;DHT22;64127;51.488;5.462;2022-11-20T13:55:54;6.80;99.90
75430;DHT22;64127;51.488;5.462;2022-11-20T13:58:40;6.80;99.90
75430;DHT22;64127;51.488;5.462;2022-11-20T14:01:21;6.90;99.90
75430;DHT22;64127;51.488;5.462;2022-11-20T14:03:56;6.90;99.90
75430;DHT22;64127;51.488;5.462;2022-11-20T14:06:45;6.90;99.90
75430;DHT22;64127;51.488;5.462;2022-11-20T14:09:29;6.90;99.90
75430;DHT22;64127;51.488;5.462;2022-11-20T14:12:04;6.90;99.90
75430;DHT22;64127;51.488;5.462;2022-11-20T14:14:52;6.90;99.90
75430;DHT22;64127;51.488;5.462;2022-11-20T14:17:33;6.90;99.90
75430;DHT22;64127;51.488;5.462;2022-11-20T14:20:11;6.90;99.90
75430;DHT22;64127;51.488;5.462;2022-11-20T14:22:49;7.00;99.90
75430;DHT22;64127;51.488;5.462;2022-11-20T14:25:26;7.00;99.90
75430;DHT22;64127;51.488;5.462;2022-11-20T14:28:03;7.00;99.90
75430;DHT22;64127;51.488;5.462;2022-11-20T14:30:38;7.00;99.90
75430;DHT22;64127;51.488;5.462;2022-11-20T14:33:15;7.00;99.90
75430;DHT22;64127;51.488;5.462;2022-11-20T14:35:51;7.00;99.90
75430;DHT22;64127;51.488;5.462;2022-11-20T14:38:27;7.00;99.90
75430;DHT22;64127;51.488;5.462;2022-11-20T14:41:08;7.00;99.90
75430;DHT22;64127;51.488;5.462;2022-11-20T14:43:56;7.00;99.90
75430;DHT22;64127;51.488;5.462;2022-11-20T14:46:30;7.00;99.90
75430;DHT22;64127;51.488;5.462;2022-11-20T14:49:03;7.00;99.90
75430;DHT22;64127;51.488;5.462;2022-11-20T14:51:38;7.00;99.90
75430;DHT22;64127;51.488;5.462;2022-11-20T14:54:19;7.00;99.90
75430;DHT22;64127;51.488;5.462;2022-11-20T14:57:01;7.00;99.90
75430;DHT22;64127;51.488;5.462;2022-11-20T14:59:35;7.00;99.90
75430;DHT22;64127;51.488;5.462;2022-11-20T15:02:11;7.00;99.90
75430;DHT22;64127;51.488;5.462;2022-11-20T15:04:48;7.00;99.90
75430;DHT22;64127;51.488;5.462;2022-11-20T15:07:27;7.00;99.90
75430;DHT22;64127;51.488;5.462;2022-11-20T15:13:01;7.00;99.90
75430;DHT22;64127;51.488;5.462;2022-11-20T15:15:51;7.00;99.90
75430;DHT22;64127;51.488;5.462;2022-11-20T15:18:46;7.00;99.90
75430;DHT22;64127;51.488;5.462;2022-11-20T15:21:19;7.00;99.90
75430;DHT22;64127;51.488;5.462;2022-11-20T15:23:55;7.00;99.90
75430;DHT22;64127;51.488;5.462;2022-11-20T15:26:29;7.00;99.90
75430;DHT22;64127;51.488;5.462;2022-11-20T15:29:04;7.00;99.90
75430;DHT22;64127;51.488;5.462;2022-11-20T15:31:36;7.00;99.90
75430;DHT22;64127;51.488;5.462;2022-11-20T15:34:11;7.00;99.90
75430;DHT22;64127;51.488;5.462;2022-11-20T15:36:44;7.00;99.90
75430;DHT22;64127;51.488;5.462;2022-11-20T15:39:16;7.10;99.90
75430;DHT22;64127;51.488;5.462;2022-11-20T15:41:48;7.10;99.90
75430;DHT22;64127;51.488;5.462;2022-11-20T15:44:19;7.10;99.90
75430;DHT22;64127;51.488;5.462;2022-11-20T15:46:52;7.10;99.90
75430;DHT22;64127;51.488;5.462;2022-11-20T15:49:24;7.10;99.90
75430;DHT22;64127;51.488;5.462;2022-11-20T15:51:57;7.10;99.90
75430;DHT22;64127;51.488;5.462;2022-11-20T15:54:29;7.10;99.90
75430;DHT22;64127;51.488;5.462;2022-11-20T15:57:01;7.10;99.90
75430;DHT22;64127;51.488;5.462;2022-11-20T15:59:34;7.20;99.90
75430;DHT22;64127;51.488;5.462;2022-11-20T16:02:10;7.20;99.90
75430;DHT22;64127;51.488;5.462;2022-11-20T16:04:49;7.30;99.90
75430;DHT22;64127;51.488;5.462;2022-11-20T16:07:21;7.30;99.90
75430;DHT22;64127;51.488;5.462;2022-11-20T16:09:53;7.30;99.90
75430;DHT22;64127;51.488;5.462;2022-11-20T16:12:28;7.30;99.90
75430;DHT22;64127;51.488;5.462;2022-11-20T16:15:18;7.30;99.90
75430;DHT22;64127;51.488;5.462;2022-11-20T16:18:11;7.30;99.90
75430;DHT22;64127;51.488;5.462;2022-11-20T16:20:46;7.40;99.90
75430;DHT22;64127;51.488;5.462;2022-11-20T16:23:20;7.40;99.90
75430;DHT22;64127;51.488;5.462;2022-11-20T16:25:52;7.40;99.90
75430;DHT22;64127;51.488;5.462;2022-11-20T16:28:25;7.40;99.90
75430;DHT22;64127;51.488;5.462;2022-11-20T16:30:57;7.40;99.90
75430;DHT22;64127;51.488;5.462;2022-11-20T16:33:29;7.40;99.90
75430;DHT22;64127;51.488;5.462;2022-11-20T16:36:14;7.40;99.90
75430;DHT22;64127;51.488;5.462;2022-11-20T16:38:51;7.40;99.90
75430;DHT22;64127;51.488;5.462;2022-11-20T16:41:25;7.50;99.90
75430;DHT22;64127;51.488;5.462;2022-11-20T16:44:00;7.50;99.90
75430;DHT22;64127;51.488;5.462;2022-11-20T16:46:33;7.50;99.90
75430;DHT22;64127;51.488;5.462;2022-11-20T16:49:10;7.60;99.90
75430;DHT22;64127;51.488;5.462;2022-11-20T16:51:43;7.60;99.90
75430;DHT22;64127;51.488;5.462;2022-11-20T16:54:15;7.60;99.90
75430;DHT22;64127;51.488;5.462;2022-11-20T16:56:52;7.70;99.90
75430;DHT22;64127;51.488;5.462;2022-11-20T16:59:24;7.70;99.90
75430;DHT22;64127;51.488;5.462;2022-11-20T17:01:56;7.70;99.90
75430;DHT22;64127;51.488;5.462;2022-11-20T17:04:28;7.70;99.90
75430;DHT22;64127;51.488;5.462;2022-11-20T17:07:00;7.70;99.90
75430;DHT22;64127;51.488;5.462;2022-11-20T17:09:38;7.70;99.90
75430;DHT22;64127;51.488;5.462;2022-11-20T17:12:11;7.80;99.90
75430;DHT22;64127;51.488;5.462;2022-11-20T17:14:43;7.80;99.90
75430;DHT22;64127;51.488;5.462;2022-11-20T17:17:15;7.80;99.90
75430;DHT22;64127;51.488;5.462;2022-11-20T17:19:47;7.80;99.90
75430;DHT22;64127;51.488;5.462;2022-11-20T17:22:19;7.90;99.90
75430;DHT22;64127;51.488;5.462;2022-11-20T17:24:51;7.90;99.90
75430;DHT22;64127;51.488;5.462;2022-11-20T17:27:23;7.90;99.90
75430;DHT22;64127;51.488;5.462;2022-11-20T17:29:55;7.90;99.90
75430;DHT22;64127;51.488;5.462;2022-11-20T17:32:29;8.00;99.90
75430;DHT22;64127;51.488;5.462;2022-11-20T17:35:01;8.00;99.90
75430;DHT22;64127;51.488;5.462;2022-11-20T17:37:33;8.00;99.90
75430;DHT22;64127;51.488;5.462;2022-11-20T17:40:05;8.00;99.90
75430;DHT22;64127;51.488;5.462;2022-11-20T17:42:37;8.10;99.90
75430;DHT22;64127;51.488;5.462;2022-11-20T17:45:09;8.20;99.90
75430;DHT22;64127;51.488;5.462;2022-11-20T17:47:41;8.20;99.90
75430;DHT22;64127;51.488;5.462;2022-11-20T17:50:15;8.20;99.90
75430;DHT22;64127;51.488;5.462;2022-11-20T17:52:47;8.30;99.90
75430;DHT22;64127;51.488;5.462;2022-11-20T17:55:19;8.40;99.90
75430;DHT22;64127;51.488;5.462;2022-11-20T17:57:51;8.50;99.90
75430;DHT22;64127;51.488;5.462;2022-11-20T18:00:23;8.50;99.90
75430;DHT22;64127;51.488;5.462;2022-11-20T18:02:55;8.60;99.90
75430;DHT22;64127;51.488;5.462;2022-11-20T18:05:28;8.60;99.90
75430;DHT22;64127;51.488;5.462;2022-11-20T18:08:00;8.60;99.90
75430;DHT22;64127;51.488;5.462;2022-11-20T18:10:32;8.70;99.90
75430;DHT22;64127;51.488;5.462;2022-11-20T18:13:05;8.70;99.90
75430;DHT22;64127;51.488;5.462;2022-11-20T18:15:37;8.70;99.90
75430;DHT22;64127;51.488;5.462;2022-11-20T18:18:09;8.70;99.90
75430;DHT22;64127;51.488;5.462;2022-11-20T18:20:41;8.80;99.90
75430;DHT22;64127;51.488;5.462;2022-11-20T18:23:13;8.80;99.90
75430;DHT22;64127;51.488;5.462;2022-11-20T18:25:45;8.80;99.90
75430;DHT22;64127;51.488;5.462;2022-11-20T18:28:18;8.80;99.90
75430;DHT22;64127;51.488;5.462;2022-11-20T18:30:50;8.80;99.90
75430;DHT22;64127;51.488;5.462;2022-11-20T18:33:22;8.80;99.90
75430;DHT22;64127;51.488;5.462;2022-11-20T18:36:16;8.80;99.90
75430;DHT22;64127;51.488;5.462;2022-11-20T18:38:56;8.80;99.90
75430;DHT22;64127;51.488;5.462;2022-11-20T18:41:29;8.80;99.90
75430;DHT22;64127;51.488;5.462;2022-11-20T18:44:23;8.80;99.90